createdAt,value
2023-02-11T00:02:01.153Z,26.73
2023-02-11T00:04:29.796Z,24.17
2023-02-11T00:06:56.844Z,25.57
2023-02-11T00:09:23.948Z,25.52
2023-02-11T00:11:50.780Z,25.67
2023-02-11T00:14:17.879Z,21.77
2023-02-11T00:16:45.068Z,23.65
2023-02-11T00:19:12.088Z,23.40
2023-02-11T00:21:40.316Z,30.03
2023-02-11T00:24:07.299Z,22.90
2023-02-11T00:26:35.911Z,26.25
2023-02-11T00:29:04.520Z,22.23
2023-02-11T00:31:32.164Z,19.75
2023-02-11T00:33:59.396Z,22.35
2023-02-11T00:36:28.650Z,29.53
2023-02-11T00:38:57.426Z,25.30
2023-02-11T00:41:26.018Z,25.95
2023-02-11T00:43:53.296Z,23.10
2023-02-11T00:46:20.589Z,22.52
2023-02-11T00:48:47.841Z,32.95
2023-02-11T00:51:14.904Z,30.52
2023-02-11T00:53:41.921Z,22.17
2023-02-11T00:56:09.614Z,29.13
2023-02-11T00:58:37.360Z,28.45
2023-02-11T01:01:07.943Z,28.10
2023-02-11T01:03:35.336Z,25.23
2023-02-11T01:06:02.915Z,25.00
2023-02-11T01:08:32.995Z,25.33
2023-02-11T01:11:02.650Z,29.25
2023-02-11T01:13:30.862Z,24.03
2023-02-11T01:15:58.357Z,24.17
2023-02-11T01:18:25.859Z,27.35
2023-02-11T01:20:53.568Z,21.08
2023-02-11T01:23:20.776Z,26.65
2023-02-11T01:25:48.827Z,22.33
2023-02-11T01:28:21.688Z,18.80
2023-02-11T01:30:52.610Z,24.92
2023-02-11T01:33:20.270Z,24.88
2023-02-11T01:35:47.596Z,22.92
2023-02-11T01:38:23.736Z,20.73
2023-02-11T01:40:56.318Z,29.27
2023-02-11T01:43:24.352Z,22.20
2023-02-11T01:45:58.923Z,20.55
2023-02-11T01:48:37.629Z,27.67
2023-02-11T01:51:16.711Z,24.20
2023-02-11T01:54:05.076Z,23.88
2023-02-11T01:56:52.556Z,25.40
2023-02-11T01:59:31.476Z,29.33
2023-02-11T02:02:03.762Z,26.27
2023-02-11T02:04:35.979Z,24.98
2023-02-11T02:07:08.427Z,23.40
2023-02-11T02:09:41.865Z,31.25
2023-02-11T02:12:08.850Z,30.55
2023-02-11T02:14:40.467Z,24.58
2023-02-11T02:17:15.000Z,23.20
2023-02-11T02:20:06.258Z,23.83
2023-02-11T02:22:54.299Z,32.55
2023-02-11T02:25:39.712Z,23.88
2023-02-11T02:28:26.585Z,25.45
2023-02-11T02:31:20.864Z,28.58
2023-02-11T02:33:53.243Z,33.05
2023-02-11T02:36:48.296Z,31.13
2023-02-11T02:39:36.459Z,23.05
2023-02-11T02:42:04.836Z,21.70
2023-02-11T02:44:32.376Z,27.13
2023-02-11T02:46:59.554Z,21.13
2023-02-11T02:49:26.577Z,26.08
2023-02-11T02:51:53.418Z,24.92
2023-02-11T02:55:11.323Z,28.77
2023-02-11T02:58:02.447Z,25.05
2023-02-11T03:00:53.517Z,37.50
2023-02-11T03:03:43.814Z,25.80
2023-02-11T03:06:31.583Z,32.07
2023-02-11T03:09:11.380Z,33.13
2023-02-11T03:11:39.306Z,32.47
2023-02-11T03:14:10.358Z,33.72
2023-02-11T03:16:39.484Z,33.60
2023-02-11T03:19:29.156Z,28.42
2023-02-11T03:21:57.488Z,30.70
2023-02-11T03:24:38.374Z,30.73
2023-02-11T03:27:19.377Z,31.02
2023-02-11T03:30:04.822Z,32.47
2023-02-11T03:32:41.625Z,32.70
2023-02-11T03:35:23.303Z,37.80
2023-02-11T03:38:16.152Z,30.92
2023-02-11T03:40:45.820Z,34.58
2023-02-11T03:43:22.911Z,31.33
2023-02-11T03:45:52.657Z,28.40
2023-02-11T03:48:31.801Z,37.42
2023-02-11T03:51:01.766Z,36.53
2023-02-11T03:53:28.702Z,39.10
2023-02-11T03:55:58.210Z,34.20
2023-02-11T03:58:25.265Z,36.47
2023-02-11T04:00:52.445Z,38.78
2023-02-11T04:03:19.632Z,41.13
2023-02-11T04:05:46.599Z,41.33
2023-02-11T04:08:13.656Z,41.20
2023-02-11T04:10:40.600Z,40.67
2023-02-11T04:13:07.603Z,42.15
2023-02-11T04:15:34.648Z,40.45
2023-02-11T04:18:03.411Z,42.78
2023-02-11T04:20:30.591Z,41.50
2023-02-11T04:22:57.497Z,36.17
2023-02-11T04:25:26.012Z,45.38
2023-02-11T04:27:52.906Z,48.00
2023-02-11T04:30:19.716Z,47.22
2023-02-11T04:32:46.594Z,44.25
2023-02-11T04:35:13.535Z,41.05
2023-02-11T04:37:40.958Z,49.20
2023-02-11T04:40:08.471Z,47.50
2023-02-11T04:42:35.347Z,53.38
2023-02-11T04:45:02.390Z,44.97
2023-02-11T04:47:29.392Z,46.13
2023-02-11T04:49:58.114Z,45.17
2023-02-11T04:52:25.239Z,43.53
2023-02-11T04:54:52.070Z,46.03
2023-02-11T04:57:19.324Z,47.97
2023-02-11T04:59:46.508Z,50.83
2023-02-11T05:02:13.581Z,51.58
2023-02-11T05:04:40.662Z,47.55
2023-02-11T05:07:07.551Z,41.65
2023-02-11T05:09:34.444Z,44.60
2023-02-11T05:12:01.385Z,50.08
2023-02-11T05:14:28.398Z,45.45
2023-02-11T05:16:55.363Z,56.17
2023-02-11T05:19:22.344Z,49.80
2023-02-11T05:22:01.679Z,41.53
2023-02-11T05:24:29.477Z,51.08
2023-02-11T05:26:56.448Z,52.38
2023-02-11T05:29:23.538Z,47.33
2023-02-11T05:31:50.587Z,54.47
2023-02-11T05:34:17.413Z,50.38
2023-02-11T05:36:44.261Z,53.15
2023-02-11T05:39:11.099Z,45.35
2023-02-11T05:41:38.286Z,48.85
2023-02-11T05:44:05.828Z,51.58
2023-02-11T05:46:36.714Z,45.88
2023-02-11T05:49:03.623Z,51.42
2023-02-11T05:51:30.697Z,59.63
2023-02-11T05:53:57.536Z,51.50
2023-02-11T05:56:24.742Z,49.60
2023-02-11T05:58:51.698Z,61.45
2023-02-11T06:01:18.573Z,56.75
2023-02-11T06:03:45.505Z,58.33
2023-02-11T06:06:13.158Z,65.90
2023-02-11T06:08:40.641Z,56.40
2023-02-11T06:11:07.642Z,54.10
2023-02-11T06:13:35.314Z,57.13
2023-02-11T06:16:03.850Z,58.10
2023-02-11T06:18:33.323Z,57.80
2023-02-11T06:21:00.492Z,58.90
2023-02-11T06:23:30.268Z,66.40
2023-02-11T06:26:03.304Z,47.08
2023-02-11T06:28:33.504Z,52.67
2023-02-11T06:31:09.906Z,54.60
2023-02-11T06:33:37.444Z,53.70
2023-02-11T06:36:05.664Z,55.95
2023-02-11T06:38:32.514Z,60.00
2023-02-11T06:40:59.564Z,52.83
2023-02-11T06:43:26.469Z,59.13
2023-02-11T06:45:54.923Z,58.42
2023-02-11T06:48:23.126Z,57.25
2023-02-11T06:50:49.883Z,62.75
2023-02-11T06:53:16.828Z,57.60
2023-02-11T06:55:43.713Z,57.75
2023-02-11T06:58:10.792Z,65.97
2023-02-11T07:00:37.993Z,59.00
2023-02-11T07:03:04.953Z,63.78
2023-02-11T07:05:31.943Z,66.78
2023-02-11T07:07:59.017Z,60.20
2023-02-11T07:10:28.310Z,62.15
2023-02-11T07:12:58.388Z,64.95
2023-02-11T07:15:26.103Z,68.97
2023-02-11T07:17:52.894Z,61.57
2023-02-11T07:20:19.925Z,65.30
2023-02-11T07:22:46.810Z,66.32
2023-02-11T07:25:13.706Z,62.70
2023-02-11T07:27:40.585Z,72.22
2023-02-11T07:30:08.041Z,56.20
2023-02-11T07:32:35.185Z,63.63
2023-02-11T07:35:02.113Z,68.68
2023-02-11T07:37:28.981Z,59.63
2023-02-11T07:39:56.093Z,66.27
2023-02-11T07:42:23.211Z,60.05
2023-02-11T07:44:50.684Z,63.00
2023-02-11T07:47:17.736Z,63.28
2023-02-11T07:49:45.890Z,65.82
2023-02-11T07:52:12.845Z,64.63
2023-02-11T07:54:39.744Z,61.90
2023-02-11T07:57:06.814Z,65.60
2023-02-11T07:59:33.842Z,64.70
2023-02-11T08:02:01.639Z,65.25
2023-02-11T08:04:28.759Z,64.25
2023-02-11T08:06:59.097Z,62.10
2023-02-11T08:09:26.285Z,62.47
2023-02-11T08:11:53.330Z,62.95
2023-02-11T08:14:20.641Z,61.65
2023-02-11T08:16:47.756Z,63.90
2023-02-11T08:19:16.662Z,62.70
2023-02-11T08:21:44.497Z,64.43
2023-02-11T08:24:11.640Z,63.10
2023-02-11T08:26:39.054Z,62.20
2023-02-11T08:29:11.987Z,65.13
2023-02-11T08:31:41.857Z,57.63
2023-02-11T08:34:11.539Z,61.00
2023-02-11T08:36:40.176Z,62.78
2023-02-11T08:39:19.072Z,66.13
2023-02-11T08:41:52.950Z,57.20
2023-02-11T08:44:21.501Z,62.45
2023-02-11T08:46:48.920Z,60.85
2023-02-11T08:49:16.424Z,57.73
2023-02-11T08:51:44.056Z,59.88
2023-02-11T08:54:11.780Z,59.65
2023-02-11T08:56:39.399Z,61.80
2023-02-11T08:59:07.323Z,59.60
2023-02-11T09:01:34.397Z,63.95
2023-02-11T09:04:01.473Z,59.30
2023-02-11T09:06:29.117Z,58.63
2023-02-11T09:08:57.512Z,64.07
2023-02-11T09:11:35.832Z,61.00
2023-02-11T09:14:04.811Z,64.57
2023-02-11T09:16:35.014Z,60.55
2023-02-11T09:19:04.038Z,58.55
2023-02-11T09:21:31.500Z,64.63
2023-02-11T09:23:58.636Z,56.35
2023-02-11T09:26:31.951Z,54.28
2023-02-11T09:28:59.638Z,63.55
2023-02-11T09:31:29.393Z,60.22
2023-02-11T09:34:02.243Z,58.03
2023-02-11T09:36:32.520Z,64.83
2023-02-11T09:39:01.234Z,61.83
2023-02-11T09:41:47.089Z,59.50
2023-02-11T09:44:23.271Z,63.83
2023-02-11T09:47:30.485Z,53.15
2023-02-11T09:50:04.740Z,56.25
2023-02-11T09:52:39.604Z,52.42
2023-02-11T09:55:19.544Z,48.08
2023-02-11T09:57:46.646Z,47.97
2023-02-11T10:00:25.207Z,52.22
2023-02-11T10:03:07.347Z,53.13
2023-02-11T10:06:08.397Z,50.33
2023-02-11T10:08:59.984Z,45.50
2023-02-11T10:11:44.087Z,52.80
2023-02-11T10:14:19.859Z,48.67
2023-02-11T10:17:28.499Z,49.03
2023-02-11T10:20:16.797Z,44.38
2023-02-11T10:22:52.553Z,46.97
2023-02-11T10:25:23.908Z,43.92
2023-02-11T10:27:52.020Z,46.25
2023-02-11T10:30:35.003Z,43.63
2023-02-11T10:33:14.435Z,43.22
2023-02-11T10:35:43.941Z,40.67
2023-02-11T10:38:12.042Z,37.95
2023-02-11T10:40:39.187Z,40.35
2023-02-11T10:43:12.766Z,41.67
2023-02-11T10:45:47.473Z,41.05
2023-02-11T10:48:53.855Z,37.47
2023-02-11T10:51:26.887Z,38.13
2023-02-11T10:54:12.600Z,44.50
2023-02-11T10:56:46.442Z,35.83
2023-02-11T10:59:40.198Z,39.20
2023-02-11T11:02:25.024Z,38.85
2023-02-11T11:04:57.674Z,35.30
2023-02-11T11:07:30.561Z,37.70
2023-02-11T11:10:00.797Z,32.05
2023-02-11T11:12:32.707Z,36.13
2023-02-11T11:15:04.331Z,33.05
2023-02-11T11:17:31.489Z,29.67
2023-02-11T11:20:22.492Z,31.55
2023-02-11T11:22:53.119Z,34.30
2023-02-11T11:25:26.994Z,38.00
2023-02-11T11:28:00.171Z,30.58
2023-02-11T11:30:34.427Z,29.20
2023-02-11T11:33:02.076Z,30.10
2023-02-11T11:35:33.030Z,29.47
2023-02-11T11:38:05.449Z,30.13
2023-02-11T11:40:34.864Z,31.08
2023-02-11T11:43:16.933Z,31.73
2023-02-11T11:45:54.834Z,32.50
2023-02-11T11:48:47.802Z,28.48
2023-02-11T11:51:14.692Z,31.17
2023-02-11T11:54:02.679Z,33.87
2023-02-11T11:56:33.800Z,28.63
2023-02-11T11:59:03.743Z,30.67
2023-02-11T12:02:09.719Z,33.08
2023-02-11T12:04:55.188Z,28.98
2023-02-11T12:07:41.087Z,29.70
2023-02-11T12:10:29.740Z,25.80
2023-02-11T12:13:28.530Z,26.77
2023-02-11T12:16:00.690Z,29.35
2023-02-11T12:18:47.543Z,25.23
2023-02-11T12:21:38.044Z,25.80
2023-02-11T12:24:29.784Z,24.02
2023-02-11T12:26:59.167Z,25.98
2023-02-11T12:29:47.192Z,26.17
2023-02-11T12:32:33.541Z,26.73
2023-02-11T12:35:09.688Z,22.15
2023-02-11T12:37:42.732Z,24.35
2023-02-11T12:40:10.327Z,22.33
2023-02-11T12:43:20.243Z,24.33
2023-02-11T12:46:02.576Z,23.90
2023-02-11T12:48:56.733Z,19.73
2023-02-11T12:51:47.346Z,22.50
2023-02-11T12:54:29.483Z,17.15
2023-02-11T12:57:04.046Z,18.57
2023-02-11T12:59:41.824Z,19.02
2023-02-11T13:02:45.662Z,17.75
2023-02-11T13:05:38.693Z,16.73
2023-02-11T13:08:31.742Z,20.90
2023-02-11T13:11:02.464Z,20.15
2023-02-11T13:13:34.426Z,21.20
2023-02-11T13:16:07.990Z,21.85
2023-02-11T13:18:58.318Z,22.35
2023-02-11T13:21:34.946Z,20.27
2023-02-11T13:24:17.660Z,14.23
2023-02-11T13:26:59.664Z,19.55
2023-02-11T13:29:30.187Z,17.02
2023-02-11T13:32:07.917Z,12.02
2023-02-11T13:34:43.946Z,13.95
2023-02-11T13:37:38.968Z,9.30
2023-02-11T13:40:21.271Z,12.30
2023-02-11T13:43:00.479Z,13.57
2023-02-11T13:45:30.611Z,11.43
2023-02-11T13:47:59.842Z,9.80
2023-02-11T13:50:27.557Z,9.75
2023-02-11T13:53:03.981Z,11.50
2023-02-11T13:55:32.318Z,11.82
2023-02-11T13:58:08.418Z,9.75
2023-02-11T14:00:35.377Z,9.88
2023-02-11T14:03:51.118Z,6.75
2023-02-11T14:06:40.319Z,9.13
2023-02-11T14:09:09.817Z,12.18
2023-02-11T14:12:14.979Z,10.40
2023-02-11T14:15:18.888Z,7.97
2023-02-11T14:17:45.780Z,7.43
2023-02-11T14:20:35.640Z,9.00
2023-02-11T14:23:04.885Z,9.43
2023-02-11T14:25:32.520Z,8.93
2023-02-11T14:28:09.366Z,6.97
2023-02-11T14:31:13.042Z,8.38
2023-02-11T14:34:05.344Z,9.68
2023-02-11T14:36:44.582Z,8.60
2023-02-11T14:39:29.486Z,10.50
2023-02-11T14:41:56.487Z,7.88
2023-02-11T14:44:30.123Z,9.27
2023-02-11T14:46:58.054Z,7.95
2023-02-11T14:49:28.611Z,8.73
2023-02-11T14:52:06.127Z,9.48
2023-02-11T14:54:34.896Z,8.63
2023-02-11T14:57:20.049Z,10.73
2023-02-11T15:00:06.086Z,7.82
2023-02-11T15:02:36.214Z,11.18
2023-02-11T15:05:27.694Z,7.15
2023-02-11T15:07:58.062Z,7.90
2023-02-11T15:10:43.574Z,9.38
2023-02-11T15:13:19.229Z,10.32
2023-02-11T15:15:48.040Z,7.43
2023-02-11T15:18:24.264Z,8.57
2023-02-11T15:20:52.354Z,8.43
2023-02-11T15:23:28.530Z,9.13
2023-02-11T15:25:56.506Z,11.70
2023-02-11T15:28:26.719Z,9.38
2023-02-11T15:31:04.453Z,13.85
2023-02-11T15:33:32.946Z,10.25
2023-02-11T15:36:02.093Z,12.73
2023-02-11T15:38:32.303Z,9.80
2023-02-11T15:41:04.326Z,10.20
2023-02-11T15:43:45.819Z,11.43
2023-02-11T15:46:17.044Z,11.07
2023-02-11T15:48:53.171Z,12.03
2023-02-11T15:51:25.447Z,11.60
2023-02-11T15:54:03.936Z,10.35
2023-02-11T15:56:45.752Z,10.75
2023-02-11T15:59:18.288Z,9.00
2023-02-11T16:01:46.992Z,10.37
2023-02-11T16:04:19.634Z,7.55
2023-02-11T16:06:50.262Z,10.35
2023-02-11T16:09:17.138Z,12.90
2023-02-11T16:11:49.973Z,9.07
2023-02-11T16:14:37.106Z,11.30
2023-02-11T16:17:11.071Z,13.52
2023-02-11T16:19:45.741Z,12.23
2023-02-11T16:22:24.183Z,15.50
2023-02-11T16:24:54.230Z,11.45
2023-02-11T16:27:28.619Z,14.02
2023-02-11T16:29:56.704Z,11.30
2023-02-11T16:32:28.835Z,9.93
2023-02-11T16:34:58.287Z,14.73
2023-02-11T16:37:26.149Z,12.88
2023-02-11T16:39:58.085Z,10.48
2023-02-11T16:42:25.211Z,13.43
2023-02-11T16:44:52.375Z,10.18
2023-02-11T16:47:29.095Z,11.13
2023-02-11T16:49:56.201Z,11.63
2023-02-11T16:52:24.429Z,11.43
2023-02-11T16:54:51.514Z,14.43
2023-02-11T16:57:24.438Z,13.37
2023-02-11T16:59:52.531Z,12.63
2023-02-11T17:02:24.745Z,10.32
2023-02-11T17:04:56.515Z,13.52
2023-02-11T17:07:23.552Z,14.13
2023-02-11T17:09:51.786Z,14.38
2023-02-11T17:12:19.762Z,10.48
2023-02-11T17:14:46.620Z,13.52
2023-02-11T17:17:14.236Z,16.05
2023-02-11T17:19:41.185Z,16.60
2023-02-11T17:22:08.394Z,11.77
2023-02-11T17:24:35.241Z,14.07
2023-02-11T17:27:02.439Z,14.57
2023-02-11T17:29:29.630Z,14.75
2023-02-11T17:31:59.213Z,13.75
2023-02-11T17:34:26.354Z,18.58
2023-02-11T17:36:53.273Z,13.20
2023-02-11T17:39:21.202Z,13.02
2023-02-11T17:41:48.323Z,14.33
2023-02-11T17:44:16.696Z,11.45
2023-02-11T17:46:43.947Z,18.30
2023-02-11T17:49:12.251Z,16.75
2023-02-11T17:51:40.041Z,13.15
2023-02-11T17:54:10.649Z,14.93
2023-02-11T17:56:39.921Z,15.13
2023-02-11T17:59:08.405Z,14.55
2023-02-11T18:01:37.101Z,15.35
2023-02-11T18:04:04.751Z,12.90
2023-02-11T18:06:33.841Z,13.55
2023-02-11T18:09:02.490Z,13.75
2023-02-11T18:11:31.807Z,17.10
2023-02-11T18:13:59.737Z,19.70
2023-02-11T18:16:31.427Z,16.38
2023-02-11T18:18:58.842Z,16.83
2023-02-11T18:21:26.112Z,18.03
2023-02-11T18:23:53.331Z,21.75
2023-02-11T18:26:21.667Z,17.00
2023-02-11T18:28:48.686Z,15.03
2023-02-11T18:31:15.983Z,21.02
2023-02-11T18:33:43.615Z,17.52
2023-02-11T18:36:13.785Z,17.42
2023-02-11T18:38:42.047Z,21.55
2023-02-11T18:41:09.281Z,15.30
2023-02-11T18:43:36.968Z,15.90
2023-02-11T18:46:09.243Z,15.88
2023-02-11T18:48:36.485Z,18.70
2023-02-11T18:51:09.126Z,18.95
2023-02-11T18:53:36.316Z,14.85
2023-02-11T18:56:14.642Z,13.60
2023-02-11T18:58:41.697Z,15.82
2023-02-11T19:01:17.409Z,13.93
2023-02-11T19:03:45.413Z,18.50
2023-02-11T19:06:27.321Z,18.95
2023-02-11T19:09:01.456Z,13.85
2023-02-11T19:11:50.095Z,15.45
2023-02-11T19:14:26.325Z,14.70
2023-02-11T19:16:58.686Z,14.73
2023-02-11T19:19:29.180Z,18.10
2023-02-11T19:21:57.476Z,14.77
2023-02-11T19:24:25.725Z,13.67
2023-02-11T19:26:55.279Z,15.20
2023-02-11T19:29:22.053Z,14.52
2023-02-11T19:31:49.964Z,12.93
2023-02-11T19:34:19.945Z,14.35
2023-02-11T19:36:47.732Z,14.88
2023-02-11T19:39:14.832Z,17.02
2023-02-11T19:41:42.082Z,13.80
2023-02-11T19:44:09.593Z,13.20
2023-02-11T19:46:38.939Z,16.42
2023-02-11T19:49:06.560Z,17.30
2023-02-11T19:51:35.739Z,15.50
2023-02-11T19:54:02.905Z,18.80
2023-02-11T19:56:30.054Z,15.38
2023-02-11T19:58:57.623Z,14.23
2023-02-11T20:01:25.973Z,15.13
2023-02-11T20:03:54.667Z,13.73
2023-02-11T20:06:26.946Z,16.90
2023-02-11T20:09:02.225Z,16.65
2023-02-11T20:11:31.066Z,11.80
2023-02-11T20:13:58.495Z,14.83
2023-02-11T20:16:44.574Z,20.25
2023-02-11T20:19:17.742Z,15.13
2023-02-11T20:21:47.403Z,16.38
2023-02-11T20:24:16.562Z,18.10
2023-02-11T20:26:45.262Z,15.45
2023-02-11T20:29:12.574Z,16.10
2023-02-11T20:31:39.690Z,14.80
2023-02-11T20:34:06.976Z,14.45
2023-02-11T20:36:35.769Z,14.85
2023-02-11T20:39:05.033Z,14.85
2023-02-11T20:41:34.453Z,17.50
2023-02-11T20:44:10.619Z,17.27
2023-02-11T20:46:40.563Z,16.38
2023-02-11T20:49:11.784Z,19.03
2023-02-11T20:51:39.356Z,16.33
2023-02-11T20:54:06.951Z,16.17
2023-02-11T20:56:36.824Z,16.92
2023-02-11T20:59:05.367Z,16.30
2023-02-11T21:01:42.495Z,20.48
2023-02-11T21:04:15.306Z,18.70
2023-02-11T21:06:50.887Z,19.98
2023-02-11T21:09:21.340Z,20.73
2023-02-11T21:11:51.741Z,17.73
2023-02-11T21:14:20.604Z,19.00
2023-02-11T21:16:48.284Z,20.73
2023-02-11T21:19:16.147Z,22.70
2023-02-11T21:21:43.188Z,19.88
2023-02-11T21:24:19.768Z,24.63
2023-02-11T21:26:47.008Z,23.80
2023-02-11T21:29:13.998Z,22.20
2023-02-11T21:31:41.158Z,23.20
2023-02-11T21:34:08.320Z,18.90
2023-02-11T21:36:35.410Z,19.98
2023-02-11T21:39:03.842Z,16.98
2023-02-11T21:41:31.073Z,18.42
2023-02-11T21:43:58.552Z,22.08
2023-02-11T21:46:25.660Z,19.60
2023-02-11T21:48:52.999Z,20.50
2023-02-11T21:51:25.046Z,23.00
2023-02-11T21:53:57.583Z,23.73
2023-02-11T21:56:28.191Z,23.15
2023-02-11T21:58:57.836Z,25.02
2023-02-11T22:01:31.193Z,25.63
2023-02-11T22:03:58.920Z,27.02
2023-02-11T22:06:33.093Z,24.70
2023-02-11T22:09:06.243Z,28.90
2023-02-11T22:11:33.232Z,27.00
2023-02-11T22:14:00.273Z,26.60
2023-02-11T22:16:28.139Z,25.60
2023-02-11T22:18:58.784Z,23.58
2023-02-11T22:21:25.836Z,27.00
2023-02-11T22:23:55.344Z,24.73
2023-02-11T22:26:24.978Z,24.88
2023-02-11T22:28:52.627Z,29.00
2023-02-11T22:31:25.923Z,28.58
2023-02-11T22:33:53.106Z,27.70
2023-02-11T22:36:26.075Z,22.65
2023-02-11T22:38:53.925Z,22.30
2023-02-11T22:41:24.965Z,25.15
2023-02-11T22:43:52.133Z,21.58
2023-02-11T22:46:20.062Z,25.30
2023-02-11T22:48:49.227Z,24.30
2023-02-11T22:51:22.648Z,23.48
2023-02-11T22:53:51.696Z,22.75
2023-02-11T22:56:19.065Z,20.80
2023-02-11T22:58:46.153Z,22.10
2023-02-11T23:01:13.640Z,23.60
2023-02-11T23:03:41.035Z,24.15
2023-02-11T23:06:08.888Z,24.00
2023-02-11T23:08:37.715Z,21.92
2023-02-11T23:11:10.378Z,24.00
2023-02-11T23:13:39.075Z,26.02
2023-02-11T23:16:08.836Z,21.55
2023-02-11T23:18:37.579Z,23.98
2023-02-11T23:21:12.500Z,22.52
2023-02-11T23:23:39.903Z,23.02
2023-02-11T23:26:13.324Z,25.17
2023-02-11T23:28:40.900Z,23.77
2023-02-11T23:31:35.501Z,27.00
2023-02-11T23:34:02.451Z,20.60
2023-02-11T23:36:29.554Z,23.20
2023-02-11T23:38:56.935Z,25.17
2023-02-11T23:41:24.220Z,30.83
2023-02-11T23:43:53.586Z,22.65
2023-02-11T23:46:27.115Z,25.27
2023-02-11T23:48:54.494Z,24.05
2023-02-11T23:51:22.344Z,22.90
2023-02-11T23:53:50.351Z,26.92
2023-02-11T23:56:20.707Z,23.93
2023-02-11T23:58:49.134Z,26.30
